2026/08/20

Sensor Date Temp./Hum.
h3-hermonville 20-08-2026 - 23:59 19.1°C / 75.5%
h4-hermonville 20-08-2026 - 23:58 18.7°C / 74%
h2-hermonville 20-08-2026 - 23:54 17.4°C / 83.5%
h1-hermonville 20-08-2026 - 23:53 18.3°C / 78%
h3-hermonville 20-08-2026 - 23:49 18.2°C / 78.5%
h4-hermonville 20-08-2026 - 23:48 19.1°C / 73%
h2-hermonville 20-08-2026 - 23:43 17.3°C / 84%
h1-hermonville 20-08-2026 - 23:43 18.6°C / 77.5%
h3-hermonville 20-08-2026 - 23:39 18.5°C / 78.5%
h4-hermonville 20-08-2026 - 23:38 19.3°C / 72.5%
h2-hermonville 20-08-2026 - 23:33 17.6°C / 83%
h1-hermonville 20-08-2026 - 23:33 18.7°C / 77.5%
h3-hermonville 20-08-2026 - 23:29 17.9°C / 82%
h4-hermonville 20-08-2026 - 23:28 19.5°C / 72%
h2-hermonville 20-08-2026 - 23:23 17.5°C / 83%
h1-hermonville 20-08-2026 - 23:23 18.5°C / 78%
h3-hermonville 20-08-2026 - 23:19 17°C / 82.5%
h4-hermonville 20-08-2026 - 23:18 19.4°C / 71.5%
h2-hermonville 20-08-2026 - 23:13 17.5°C / 82.5%
h1-hermonville 20-08-2026 - 23:13 18.7°C / 76.5%
h3-hermonville 20-08-2026 - 23:09 17.4°C / 82.5%
h2-hermonville 20-08-2026 - 23:03 17.6°C / 83%
h1-hermonville 20-08-2026 - 23:03 18.7°C / 77%
h3-hermonville 20-08-2026 - 22:59 17°C / 83%
h4-hermonville 20-08-2026 - 22:58 19.7°C / 71.5%
h2-hermonville 20-08-2026 - 22:53 17.7°C / 84%
h1-hermonville 20-08-2026 - 22:53 19.1°C / 76.5%
h4-hermonville 20-08-2026 - 22:48 19.9°C / 71%
h2-hermonville 20-08-2026 - 22:43 18°C / 83%
h1-hermonville 20-08-2026 - 22:43 19.4°C / 75.5%
h3-hermonville 20-08-2026 - 22:39 17.6°C / 82.5%
h4-hermonville 20-08-2026 - 22:38 20.1°C / 70.5%
h2-hermonville 20-08-2026 - 22:33 17.9°C / 83.5%
h1-hermonville 20-08-2026 - 22:33 19.5°C / 75.5%
h3-hermonville 20-08-2026 - 22:29 17.8°C / 80.5%
h4-hermonville 20-08-2026 - 22:28 20.2°C / 70%
h2-hermonville 20-08-2026 - 22:23 17.9°C / 81.5%
h1-hermonville 20-08-2026 - 22:23 19.6°C / 74%
h3-hermonville 20-08-2026 - 22:19 18.6°C / 76.5%
h4-hermonville 20-08-2026 - 22:18 20.3°C / 68.5%
h1-hermonville 20-08-2026 - 22:13 19.8°C / 72%
h3-hermonville 20-08-2026 - 22:09 18.9°C / 75%
h4-hermonville 20-08-2026 - 22:08 20.2°C / 68%
h2-hermonville 20-08-2026 - 22:03 18.5°C / 80.5%
h1-hermonville 20-08-2026 - 22:03 20°C / 70.5%
h4-hermonville 20-08-2026 - 21:58 20.9°C / 63.5%
h2-hermonville 20-08-2026 - 21:53 20°C / 66.5%
h1-hermonville 20-08-2026 - 21:53 20.5°C / 64.5%
h3-hermonville 20-08-2026 - 21:49 19.5°C / 66%
h2-hermonville 20-08-2026 - 21:43 20.2°C / 63.5%
h1-hermonville 20-08-2026 - 21:43 20.6°C / 62.5%
h3-hermonville 20-08-2026 - 21:39 19.5°C / 65%
h2-hermonville 20-08-2026 - 21:33 20.3°C / 63.5%
h1-hermonville 20-08-2026 - 21:33 20.6°C / 63%
h3-hermonville 20-08-2026 - 21:29 19.9°C / 64%
h2-hermonville 20-08-2026 - 21:23 20.9°C / 61%
h1-hermonville 20-08-2026 - 21:23 20.6°C / 62%
h3-hermonville 20-08-2026 - 21:19 19.9°C / 63%
h4-hermonville 20-08-2026 - 21:18 21.2°C / 57.5%
h2-hermonville 20-08-2026 - 21:13 21°C / 59.5%
h1-hermonville 20-08-2026 - 21:13 20.5°C / 61.5%
h3-hermonville 20-08-2026 - 21:09 20.2°C / 61.5%
h4-hermonville 20-08-2026 - 21:08 21.5°C / 56.5%
h1-hermonville 20-08-2026 - 21:03 20.4°C / 62%
h3-hermonville 20-08-2026 - 20:59 21.2°C / 60%
h4-hermonville 20-08-2026 - 20:58 21.7°C / 56.5%
h1-hermonville 20-08-2026 - 20:53 20.1°C / 61.5%
h3-hermonville 20-08-2026 - 20:49 21.6°C / 56.5%
h4-hermonville 20-08-2026 - 20:48 21.7°C / 56%
h2-hermonville 20-08-2026 - 20:43 22.3°C / 55%
h1-hermonville 20-08-2026 - 20:43 20.7°C / 60.5%
h3-hermonville 20-08-2026 - 20:39 21.9°C / 55.5%
h4-hermonville 20-08-2026 - 20:38 21.8°C / 54%
h2-hermonville 20-08-2026 - 20:33 23.2°C / 50%
h1-hermonville 20-08-2026 - 20:33 20.6°C / 58.5%
h3-hermonville 20-08-2026 - 20:29 21.7°C / 54.5%
h4-hermonville 20-08-2026 - 20:28 21.8°C / 54%
h2-hermonville 20-08-2026 - 20:23 24.2°C / 48%
h1-hermonville 20-08-2026 - 20:23 20.9°C / 57%
h3-hermonville 20-08-2026 - 20:19 21.6°C / 54.5%
h4-hermonville 20-08-2026 - 20:18 22°C / 53%
h2-hermonville 20-08-2026 - 20:13 24.9°C / 48%
h1-hermonville 20-08-2026 - 20:13 21.1°C / 56.5%
h3-hermonville 20-08-2026 - 20:09 21.7°C / 54%
h4-hermonville 20-08-2026 - 20:08 22.1°C / 52.5%
h2-hermonville 20-08-2026 - 20:03 26°C / 46%
h1-hermonville 20-08-2026 - 20:03 21.2°C / 56%
h3-hermonville 20-08-2026 - 19:59 21.9°C / 54.5%
h4-hermonville 20-08-2026 - 19:58 22.3°C / 53%
h2-hermonville 20-08-2026 - 19:53 26.8°C / 45%
h1-hermonville 20-08-2026 - 19:53 21.4°C / 56.5%
h3-hermonville 20-08-2026 - 19:49 22°C / 55%
h4-hermonville 20-08-2026 - 19:48 22.5°C / 53.5%
h2-hermonville 20-08-2026 - 19:43 26.6°C / 45.5%
h1-hermonville 20-08-2026 - 19:43 21.5°C / 57%
h3-hermonville 20-08-2026 - 19:39 22.1°C / 55.5%
h4-hermonville 20-08-2026 - 19:38 22.5°C / 54%
h1-hermonville 20-08-2026 - 19:33 21.7°C / 57.5%
h3-hermonville 20-08-2026 - 19:29 22.1°C / 55.5%
h4-hermonville 20-08-2026 - 19:28 22.5°C / 54%
h2-hermonville 20-08-2026 - 19:23 26.6°C / 45.5%
h1-hermonville 20-08-2026 - 19:23 21.7°C / 58%
h3-hermonville 20-08-2026 - 19:19 22.1°C / 56%
h4-hermonville 20-08-2026 - 19:18 22.4°C / 54%
h2-hermonville 20-08-2026 - 19:13 27.1°C / 44.5%
h1-hermonville 20-08-2026 - 19:13 21.8°C / 57.5%
h3-hermonville 20-08-2026 - 19:09 22.3°C / 55%
h4-hermonville 20-08-2026 - 19:08 22.6°C / 53.5%
h2-hermonville 20-08-2026 - 19:03 27.7°C / 43%
h1-hermonville 20-08-2026 - 19:03 21.8°C / 56.5%
h3-hermonville 20-08-2026 - 18:59 22.3°C / 54.5%
h4-hermonville 20-08-2026 - 18:58 22.7°C / 53%
h1-hermonville 20-08-2026 - 18:53 21.8°C / 56.5%
h3-hermonville 20-08-2026 - 18:49 22.3°C / 54.5%
h4-hermonville 20-08-2026 - 18:48 22.9°C / 53%
h2-hermonville 20-08-2026 - 18:43 27.8°C / 44%
h1-hermonville 20-08-2026 - 18:43 21.9°C / 56.5%
h3-hermonville 20-08-2026 - 18:39 22.7°C / 54.5%
h4-hermonville 20-08-2026 - 18:38 23.2°C / 52.5%
h2-hermonville 20-08-2026 - 18:33 27.6°C / 44%
h1-hermonville 20-08-2026 - 18:33 22.1°C / 57.5%
h3-hermonville 20-08-2026 - 18:29 22.8°C / 54%
h4-hermonville 20-08-2026 - 18:28 23.3°C / 51.5%
h2-hermonville 20-08-2026 - 18:23 27.2°C / 44%
h1-hermonville 20-08-2026 - 18:23 22.3°C / 54.5%
h3-hermonville 20-08-2026 - 18:19 23.4°C / 51.5%
h4-hermonville 20-08-2026 - 18:18 23.7°C / 49.5%
h2-hermonville 20-08-2026 - 18:13 26.9°C / 42%
h1-hermonville 20-08-2026 - 18:13 24°C / 48.5%
h3-hermonville 20-08-2026 - 18:09 24°C / 45.5%
h2-hermonville 20-08-2026 - 18:03 26.1°C / 42.5%
h1-hermonville 20-08-2026 - 18:03 24.2°C / 45%
h3-hermonville 20-08-2026 - 17:59 23.9°C / 45%
h4-hermonville 20-08-2026 - 17:58 23.8°C / 45%
h2-hermonville 20-08-2026 - 17:53 24.5°C / 44%
h1-hermonville 20-08-2026 - 17:53 24.1°C / 45.5%
h3-hermonville 20-08-2026 - 17:49 23.7°C / 44.5%
h4-hermonville 20-08-2026 - 17:48 23.7°C / 44.5%
h1-hermonville 20-08-2026 - 17:43 24.3°C / 44%
h3-hermonville 20-08-2026 - 17:39 23.9°C / 43.5%
h4-hermonville 20-08-2026 - 17:38 23.9°C / 44.5%
h2-hermonville 20-08-2026 - 17:33 25°C / 43%
h1-hermonville 20-08-2026 - 17:33 24.3°C / 44.5%
h3-hermonville 20-08-2026 - 17:29 23.9°C / 45%
h4-hermonville 20-08-2026 - 17:28 23.7°C / 46%
h2-hermonville 20-08-2026 - 17:23 25.3°C / 43%
h1-hermonville 20-08-2026 - 17:23 24.3°C / 46%
h3-hermonville 20-08-2026 - 17:19 24°C / 45.5%
h4-hermonville 20-08-2026 - 17:18 23.8°C / 46%
h2-hermonville 20-08-2026 - 17:13 26.3°C / 42.5%
h1-hermonville 20-08-2026 - 17:13 24.4°C / 46%
h3-hermonville 20-08-2026 - 17:09 24.2°C / 46%
h4-hermonville 20-08-2026 - 17:08 23.9°C / 46%
h2-hermonville 20-08-2026 - 17:03 26.9°C / 40.5%
h1-hermonville 20-08-2026 - 17:03 24.4°C / 45.5%
h3-hermonville 20-08-2026 - 16:59 24.2°C / 45%
h4-hermonville 20-08-2026 - 16:58 23.8°C / 46%
h2-hermonville 20-08-2026 - 16:53 26.6°C / 39.5%
h1-hermonville 20-08-2026 - 16:53 24.3°C / 44%
h3-hermonville 20-08-2026 - 16:49 24.3°C / 44.5%
h2-hermonville 20-08-2026 - 16:43 26.2°C / 42.5%
h1-hermonville 20-08-2026 - 16:43 24.1°C / 46.5%
h3-hermonville 20-08-2026 - 16:39 24.3°C / 46%
h4-hermonville 20-08-2026 - 16:38 23.7°C / 46.5%
h2-hermonville 20-08-2026 - 16:33 25.7°C / 43.5%
h1-hermonville 20-08-2026 - 16:33 23.8°C / 48%
h3-hermonville 20-08-2026 - 16:29 23.8°C / 46%
h4-hermonville 20-08-2026 - 16:28 23.5°C / 47%
h2-hermonville 20-08-2026 - 16:23 24.8°C / 44.5%
h1-hermonville 20-08-2026 - 16:23 23.8°C / 47%
h3-hermonville 20-08-2026 - 16:19 23.7°C / 45.5%
h4-hermonville 20-08-2026 - 16:18 23.5°C / 45.5%
h2-hermonville 20-08-2026 - 16:13 24.4°C / 45%
h1-hermonville 20-08-2026 - 16:13 23.8°C / 47%
h3-hermonville 20-08-2026 - 16:09 23.5°C / 45.5%
h4-hermonville 20-08-2026 - 16:08 23.4°C / 46%
h2-hermonville 20-08-2026 - 16:03 24.2°C / 45%
h1-hermonville 20-08-2026 - 16:03 23.6°C / 46.5%
h3-hermonville 20-08-2026 - 15:59 23.7°C / 46%
h4-hermonville 20-08-2026 - 15:58 23.5°C / 46%
h2-hermonville 20-08-2026 - 15:53 24.5°C / 44%
h1-hermonville 20-08-2026 - 15:53 23.5°C / 46.5%
h3-hermonville 20-08-2026 - 15:49 23.6°C / 46%
h4-hermonville 20-08-2026 - 15:48 23.5°C / 46.5%
h2-hermonville 20-08-2026 - 15:43 24.1°C / 45%
h1-hermonville 20-08-2026 - 15:43 23.4°C / 47%
h3-hermonville 20-08-2026 - 15:39 23.4°C / 45.5%
h4-hermonville 20-08-2026 - 15:38 23.2°C / 46.5%
h2-hermonville 20-08-2026 - 15:33 23.9°C / 46%
h1-hermonville 20-08-2026 - 15:33 23.4°C / 47.5%
h3-hermonville 20-08-2026 - 15:29 23.4°C / 46.5%
h4-hermonville 20-08-2026 - 15:28 23.2°C / 46.5%
h2-hermonville 20-08-2026 - 15:23 23.8°C / 46%
h1-hermonville 20-08-2026 - 15:23 23.4°C / 47.5%
h1-hermonville 20-08-2026 - 15:13 23.1°C / 48%
h3-hermonville 20-08-2026 - 15:09 23.1°C / 47%
h2-hermonville 20-08-2026 - 15:03 23.1°C / 47.5%
h1-hermonville 20-08-2026 - 15:03 23°C / 48%
h3-hermonville 20-08-2026 - 14:59 22.5°C / 48.5%
h4-hermonville 20-08-2026 - 14:58 22.8°C / 47%
h2-hermonville 20-08-2026 - 14:53 22.8°C / 50%
h1-hermonville 20-08-2026 - 14:53 23.1°C / 49.5%
h3-hermonville 20-08-2026 - 14:49 22.5°C / 49%
h4-hermonville 20-08-2026 - 14:48 22.9°C / 48%
h2-hermonville 20-08-2026 - 14:43 22.9°C / 49%
h1-hermonville 20-08-2026 - 14:43 22.9°C / 49.5%
h3-hermonville 20-08-2026 - 14:39 22.8°C / 47.5%
h4-hermonville 20-08-2026 - 14:38 22.7°C / 49%
h2-hermonville 20-08-2026 - 14:33 22.9°C / 48%
h1-hermonville 20-08-2026 - 14:33 22.8°C / 49.5%
h3-hermonville 20-08-2026 - 14:29 22.6°C / 50%
h4-hermonville 20-08-2026 - 14:28 22.6°C / 49%
h2-hermonville 20-08-2026 - 14:23 22.9°C / 49%
h1-hermonville 20-08-2026 - 14:23 22.6°C / 50%
h3-hermonville 20-08-2026 - 14:19 22.8°C / 50%
h4-hermonville 20-08-2026 - 14:18 22.7°C / 50%
h2-hermonville 20-08-2026 - 14:13 22.7°C / 51.5%
h1-hermonville 20-08-2026 - 14:13 22.4°C / 53%
h3-hermonville 20-08-2026 - 14:09 22.1°C / 52%
h4-hermonville 20-08-2026 - 14:08 22.4°C / 51%
h2-hermonville 20-08-2026 - 14:03 22.5°C / 51.5%
h1-hermonville 20-08-2026 - 14:03 22.2°C / 52%
h3-hermonville 20-08-2026 - 13:59 22.2°C / 52%
h4-hermonville 20-08-2026 - 13:58 22.3°C / 51%
h2-hermonville 20-08-2026 - 13:53 22.4°C / 52.5%
h1-hermonville 20-08-2026 - 13:53 22°C / 54%
h3-hermonville 20-08-2026 - 13:49 21.9°C / 52%
h4-hermonville 20-08-2026 - 13:48 22.3°C / 51%
h2-hermonville 20-08-2026 - 13:43 22°C / 53%
h3-hermonville 20-08-2026 - 13:39 21.7°C / 54.5%
h4-hermonville 20-08-2026 - 13:38 22.2°C / 52%
h2-hermonville 20-08-2026 - 13:33 22°C / 52.5%
h1-hermonville 20-08-2026 - 13:33 21.7°C / 54.5%
h3-hermonville 20-08-2026 - 13:29 21.7°C / 52.5%
h2-hermonville 20-08-2026 - 13:23 21.8°C / 55%
h3-hermonville 20-08-2026 - 13:19 21.7°C / 54.5%
h4-hermonville 20-08-2026 - 13:18 22.5°C / 52.5%
h2-hermonville 20-08-2026 - 13:13 21.7°C / 55.5%
h1-hermonville 20-08-2026 - 13:13 21.5°C / 55.5%
h3-hermonville 20-08-2026 - 13:09 21.5°C / 56%
h4-hermonville 20-08-2026 - 13:08 22.3°C / 52.5%
h2-hermonville 20-08-2026 - 13:03 21.2°C / 56.5%
h1-hermonville 20-08-2026 - 13:03 21.2°C / 58%
h3-hermonville 20-08-2026 - 12:59 21°C / 56%
h4-hermonville 20-08-2026 - 12:58 21.9°C / 51.5%
h2-hermonville 20-08-2026 - 12:53 21°C / 56.5%
h1-hermonville 20-08-2026 - 12:53 21°C / 57%
h3-hermonville 20-08-2026 - 12:49 21.1°C / 55%
h4-hermonville 20-08-2026 - 12:48 22.4°C / 52.5%
h2-hermonville 20-08-2026 - 12:43 21°C / 58%
h1-hermonville 20-08-2026 - 12:43 21°C / 58.5%
h3-hermonville 20-08-2026 - 12:39 21°C / 57%
h4-hermonville 20-08-2026 - 12:38 22.2°C / 52.5%
h2-hermonville 20-08-2026 - 12:33 20.9°C / 58%
h1-hermonville 20-08-2026 - 12:33 20.8°C / 58%
h3-hermonville 20-08-2026 - 12:29 20.9°C / 56%
h4-hermonville 20-08-2026 - 12:28 22.1°C / 52.5%
h2-hermonville 20-08-2026 - 12:23 20.8°C / 57%
h1-hermonville 20-08-2026 - 12:23 20.8°C / 58%
h3-hermonville 20-08-2026 - 12:19 20.8°C / 57%
h4-hermonville 20-08-2026 - 12:18 22.4°C / 51.5%
h2-hermonville 20-08-2026 - 12:13 20.7°C / 58.5%
h1-hermonville 20-08-2026 - 12:13 20.8°C / 58%
h3-hermonville 20-08-2026 - 12:09 20.8°C / 57%
h4-hermonville 20-08-2026 - 12:08 23°C / 50.5%
h2-hermonville 20-08-2026 - 12:03 20.3°C / 61%
h1-hermonville 20-08-2026 - 12:03 20.7°C / 61%
h3-hermonville 20-08-2026 - 11:59 20.5°C / 60%
h4-hermonville 20-08-2026 - 11:58 23.6°C / 50%
h2-hermonville 20-08-2026 - 11:53 20°C / 61%
h1-hermonville 20-08-2026 - 11:53 20.2°C / 60.5%
h3-hermonville 20-08-2026 - 11:49 20.2°C / 60%
h4-hermonville 20-08-2026 - 11:48 24.1°C / 48.5%
h2-hermonville 20-08-2026 - 11:43 19.9°C / 62.5%
h1-hermonville 20-08-2026 - 11:43 20°C / 62.5%
h3-hermonville 20-08-2026 - 11:39 19.7°C / 61%
h4-hermonville 20-08-2026 - 11:38 25°C / 45%
h2-hermonville 20-08-2026 - 11:33 19.8°C / 63.5%
h1-hermonville 20-08-2026 - 11:33 20°C / 63%
h3-hermonville 20-08-2026 - 11:29 20.1°C / 65%
h4-hermonville 20-08-2026 - 11:28 27.1°C / 45%
h2-hermonville 20-08-2026 - 11:23 19.4°C / 66%
h1-hermonville 20-08-2026 - 11:23 19.8°C / 65%
h3-hermonville 20-08-2026 - 11:19 19.5°C / 67%
h4-hermonville 20-08-2026 - 11:18 26°C / 47%
h2-hermonville 20-08-2026 - 11:13 19.1°C / 68%
h1-hermonville 20-08-2026 - 11:13 19.5°C / 67%
h3-hermonville 20-08-2026 - 11:09 19.2°C / 67%
h4-hermonville 20-08-2026 - 11:08 26.3°C / 45.5%
h2-hermonville 20-08-2026 - 11:03 19°C / 70.5%
h1-hermonville 20-08-2026 - 11:03 19.5°C / 69%
h3-hermonville 20-08-2026 - 10:59 18.9°C / 70%
h4-hermonville 20-08-2026 - 10:58 25.7°C / 47%
h2-hermonville 20-08-2026 - 10:53 18.8°C / 69.5%
h1-hermonville 20-08-2026 - 10:53 19.5°C / 68%
h3-hermonville 20-08-2026 - 10:49 19°C / 69.5%
h4-hermonville 20-08-2026 - 10:48 27.2°C / 46%
h2-hermonville 20-08-2026 - 10:43 18.5°C / 70.5%
h1-hermonville 20-08-2026 - 10:43 19.4°C / 69.5%
h3-hermonville 20-08-2026 - 10:39 18.6°C / 71%
h4-hermonville 20-08-2026 - 10:38 26.6°C / 46%
h2-hermonville 20-08-2026 - 10:33 18.4°C / 73%
h1-hermonville 20-08-2026 - 10:33 19.4°C / 70%
h3-hermonville 20-08-2026 - 10:29 18.7°C / 72.5%
h4-hermonville 20-08-2026 - 10:28 28.7°C / 44%
h1-hermonville 20-08-2026 - 10:23 19.2°C / 72.5%
h3-hermonville 20-08-2026 - 10:19 18.6°C / 74%
h4-hermonville 20-08-2026 - 10:18 28.1°C / 45.5%
h2-hermonville 20-08-2026 - 10:13 18°C / 79%
h1-hermonville 20-08-2026 - 10:13 18.9°C / 75.5%
h3-hermonville 20-08-2026 - 10:09 18.1°C / 77%
h4-hermonville 20-08-2026 - 10:08 26.3°C / 50%
h2-hermonville 20-08-2026 - 10:03 17.7°C / 78.5%
h1-hermonville 20-08-2026 - 10:03 18.5°C / 76.5%
h3-hermonville 20-08-2026 - 09:59 17.8°C / 77%
h4-hermonville 20-08-2026 - 09:58 24.8°C / 53.5%
h2-hermonville 20-08-2026 - 09:53 17.4°C / 80.5%
h1-hermonville 20-08-2026 - 09:53 18.1°C / 78.5%
h3-hermonville 20-08-2026 - 09:49 17.5°C / 80.5%
h4-hermonville 20-08-2026 - 09:48 23.5°C / 58%
h1-hermonville 20-08-2026 - 09:43 18°C / 80%
h4-hermonville 20-08-2026 - 09:38 22.5°C / 60.5%
h2-hermonville 20-08-2026 - 09:33 17.2°C / 82%
h1-hermonville 20-08-2026 - 09:33 17.8°C / 80%
h3-hermonville 20-08-2026 - 09:29 17.2°C / 81.5%
h2-hermonville 20-08-2026 - 09:23 17°C / 83.5%
h1-hermonville 20-08-2026 - 09:23 17.8°C / 80.5%
h3-hermonville 20-08-2026 - 09:19 17.1°C / 83%
h4-hermonville 20-08-2026 - 09:18 24.1°C / 56.5%
h2-hermonville 20-08-2026 - 09:13 17°C / 84%
h1-hermonville 20-08-2026 - 09:13 17.7°C / 81.5%
h3-hermonville 20-08-2026 - 09:09 16.9°C / 83.5%
h4-hermonville 20-08-2026 - 09:08 23.2°C / 61.5%
h2-hermonville 20-08-2026 - 09:03 16.8°C / 85%
h1-hermonville 20-08-2026 - 09:03 17.5°C / 82.5%
h4-hermonville 20-08-2026 - 08:58 20.8°C / 68%
h2-hermonville 20-08-2026 - 08:53 16.6°C / 86%
h1-hermonville 20-08-2026 - 08:53 17.5°C / 83%
h3-hermonville 20-08-2026 - 08:49 16.2°C / 87%
h4-hermonville 20-08-2026 - 08:48 20.1°C / 71.5%
h2-hermonville 20-08-2026 - 08:43 16.4°C / 88%
h1-hermonville 20-08-2026 - 08:43 17.3°C / 84.5%
h3-hermonville 20-08-2026 - 08:39 16°C / 89%
h2-hermonville 20-08-2026 - 08:33 16.3°C / 88.5%
h1-hermonville 20-08-2026 - 08:33 17.2°C / 85%
h3-hermonville 20-08-2026 - 08:29 15.9°C / 89.5%
h2-hermonville 20-08-2026 - 08:23 16.2°C / 89%
h1-hermonville 20-08-2026 - 08:23 17°C / 85.5%
h3-hermonville 20-08-2026 - 08:19 15.9°C / 90%
h4-hermonville 20-08-2026 - 08:18 18°C / 78.5%
h2-hermonville 20-08-2026 - 08:13 16.2°C / 89%
h1-hermonville 20-08-2026 - 08:13 17.2°C / 85%
h3-hermonville 20-08-2026 - 08:09 15.9°C / 89.5%
h4-hermonville 20-08-2026 - 08:08 18.3°C / 78%
h2-hermonville 20-08-2026 - 08:03 16.1°C / 89.5%
h1-hermonville 20-08-2026 - 08:03 17.1°C / 85.5%
h3-hermonville 20-08-2026 - 07:59 15.8°C / 90%
h4-hermonville 20-08-2026 - 07:58 17.8°C / 79.5%
h2-hermonville 20-08-2026 - 07:53 16.1°C / 89%
h1-hermonville 20-08-2026 - 07:53 17.1°C / 85.5%
h4-hermonville 20-08-2026 - 07:48 17.7°C / 79.5%
h2-hermonville 20-08-2026 - 07:44 15.9°C / 89.5%
h1-hermonville 20-08-2026 - 07:43 16.8°C / 86%
h3-hermonville 20-08-2026 - 07:39 15.6°C / 90.5%
h4-hermonville 20-08-2026 - 07:38 17.5°C / 79.5%
h2-hermonville 20-08-2026 - 07:33 15.9°C / 89.5%
h1-hermonville 20-08-2026 - 07:33 16.8°C / 86%
h3-hermonville 20-08-2026 - 07:29 15.6°C / 90.5%
h4-hermonville 20-08-2026 - 07:28 17.5°C / 79.5%
h2-hermonville 20-08-2026 - 07:23 15.8°C / 90%
h1-hermonville 20-08-2026 - 07:23 16.7°C / 86%
h4-hermonville 20-08-2026 - 07:18 17.5°C / 79%
h2-hermonville 20-08-2026 - 07:14 15.8°C / 89%
h1-hermonville 20-08-2026 - 07:13 16.7°C / 85.5%
h3-hermonville 20-08-2026 - 07:09 15.5°C / 90%
h4-hermonville 20-08-2026 - 07:08 17.6°C / 79%
h2-hermonville 20-08-2026 - 07:03 15.8°C / 89%
h1-hermonville 20-08-2026 - 07:03 16.7°C / 85.5%
h3-hermonville 20-08-2026 - 06:59 15.6°C / 90%
h4-hermonville 20-08-2026 - 06:58 17.5°C / 79%
h2-hermonville 20-08-2026 - 06:53 15.9°C / 89%
h1-hermonville 20-08-2026 - 06:53 16.7°C / 86%
h3-hermonville 20-08-2026 - 06:49 15.5°C / 90%
h4-hermonville 20-08-2026 - 06:48 17.7°C / 79%
h1-hermonville 20-08-2026 - 06:43 16.8°C / 86%
h3-hermonville 20-08-2026 - 06:39 15.8°C / 89%
h4-hermonville 20-08-2026 - 06:38 17.8°C / 78.5%
h2-hermonville 20-08-2026 - 06:33 16°C / 89%
h1-hermonville 20-08-2026 - 06:33 16.8°C / 86%
h3-hermonville 20-08-2026 - 06:29 16°C / 88%
h4-hermonville 20-08-2026 - 06:28 18.2°C / 77.5%
h2-hermonville 20-08-2026 - 06:23 16.2°C / 88.5%
h1-hermonville 20-08-2026 - 06:23 16.8°C / 86.5%
h2-hermonville 20-08-2026 - 06:13 16.2°C / 88%
h1-hermonville 20-08-2026 - 06:13 16.7°C / 87.5%
h3-hermonville 20-08-2026 - 06:09 16.7°C / 85%
h4-hermonville 20-08-2026 - 06:08 18.1°C / 77.5%
h2-hermonville 20-08-2026 - 06:03 16.3°C / 87.5%
h1-hermonville 20-08-2026 - 06:03 16.3°C / 89%
h3-hermonville 20-08-2026 - 05:59 17.3°C / 83.5%
h4-hermonville 20-08-2026 - 05:58 18.3°C / 77.5%
h2-hermonville 20-08-2026 - 05:53 16.5°C / 86.5%
h1-hermonville 20-08-2026 - 05:53 15.9°C / 90.5%
h3-hermonville 20-08-2026 - 05:49 17.6°C / 82%
h4-hermonville 20-08-2026 - 05:48 18.4°C / 77%
h2-hermonville 20-08-2026 - 05:43 16.8°C / 86.5%
h1-hermonville 20-08-2026 - 05:43 16.2°C / 90%
h3-hermonville 20-08-2026 - 05:39 17.5°C / 82.5%
h4-hermonville 20-08-2026 - 05:38 18.4°C / 77.5%
h2-hermonville 20-08-2026 - 05:33 16.8°C / 88%
h1-hermonville 20-08-2026 - 05:33 16.6°C / 87.5%
h3-hermonville 20-08-2026 - 05:29 17.8°C / 82.5%
h4-hermonville 20-08-2026 - 05:28 18°C / 78.5%
h2-hermonville 20-08-2026 - 05:23 16.5°C / 89%
h1-hermonville 20-08-2026 - 05:23 17.4°C / 85%
h4-hermonville 20-08-2026 - 05:18 18.4°C / 77.5%
h2-hermonville 20-08-2026 - 05:13 16.3°C / 89%
h1-hermonville 20-08-2026 - 05:13 17.3°C / 85%
h3-hermonville 20-08-2026 - 05:09 16.4°C / 88.5%
h4-hermonville 20-08-2026 - 05:08 18.3°C / 78%
h2-hermonville 20-08-2026 - 05:03 16.3°C / 89%
h1-hermonville 20-08-2026 - 05:03 17.4°C / 85%
h3-hermonville 20-08-2026 - 04:59 16.2°C / 89%
h2-hermonville 20-08-2026 - 04:53 16.4°C / 89%
h1-hermonville 20-08-2026 - 04:53 17.4°C / 85.5%
h3-hermonville 20-08-2026 - 04:49 16.2°C / 89.5%
h4-hermonville 20-08-2026 - 04:48 18.4°C / 78%
h2-hermonville 20-08-2026 - 04:43 16.4°C / 88.5%
h1-hermonville 20-08-2026 - 04:43 17.4°C / 85%
h3-hermonville 20-08-2026 - 04:39 16.2°C / 89%
h4-hermonville 20-08-2026 - 04:38 18.4°C / 78%
h2-hermonville 20-08-2026 - 04:34 16.5°C / 88.5%
h1-hermonville 20-08-2026 - 04:33 17.4°C / 85.5%
h3-hermonville 20-08-2026 - 04:29 16.5°C / 88%
h4-hermonville 20-08-2026 - 04:28 18.4°C / 77.5%
h2-hermonville 20-08-2026 - 04:23 16.6°C / 88%
h1-hermonville 20-08-2026 - 04:23 17.4°C / 85%
h3-hermonville 20-08-2026 - 04:19 16.6°C / 87%
h4-hermonville 20-08-2026 - 04:18 18.6°C / 77%
h2-hermonville 20-08-2026 - 04:13 16.6°C / 88%
h1-hermonville 20-08-2026 - 04:13 17.7°C / 84%
h3-hermonville 20-08-2026 - 04:09 17.1°C / 84.5%
h4-hermonville 20-08-2026 - 04:08 18.8°C / 76%
h2-hermonville 20-08-2026 - 04:03 16.6°C / 88%
h1-hermonville 20-08-2026 - 04:03 17.7°C / 84%
h3-hermonville 20-08-2026 - 03:59 17.3°C / 84%
h4-hermonville 20-08-2026 - 03:58 18.9°C / 76%
h1-hermonville 20-08-2026 - 03:53 17.8°C / 84%
h3-hermonville 20-08-2026 - 03:49 17.1°C / 86.5%
h4-hermonville 20-08-2026 - 03:48 18.9°C / 76.5%
h2-hermonville 20-08-2026 - 03:43 16.6°C / 88%
h1-hermonville 20-08-2026 - 03:43 17.8°C / 83.5%
h3-hermonville 20-08-2026 - 03:39 17.1°C / 85%
h4-hermonville 20-08-2026 - 03:38 19°C / 76%
h2-hermonville 20-08-2026 - 03:33 16.7°C / 87.5%
h1-hermonville 20-08-2026 - 03:33 17.8°C / 83.5%
h3-hermonville 20-08-2026 - 03:29 17.5°C / 84%
h4-hermonville 20-08-2026 - 03:28 19°C / 75.5%
h2-hermonville 20-08-2026 - 03:23 16.8°C / 87.5%
h1-hermonville 20-08-2026 - 03:23 17.9°C / 83.5%
h3-hermonville 20-08-2026 - 03:19 17.2°C / 85%
h4-hermonville 20-08-2026 - 03:18 19°C / 76%
h2-hermonville 20-08-2026 - 03:13 16.9°C / 87.5%
h1-hermonville 20-08-2026 - 03:13 17.8°C / 84%
h3-hermonville 20-08-2026 - 03:09 17°C / 86%
h4-hermonville 20-08-2026 - 03:08 19.1°C / 76%
h2-hermonville 20-08-2026 - 03:03 16.9°C / 87.5%
h1-hermonville 20-08-2026 - 03:03 17.8°C / 84%
h3-hermonville 20-08-2026 - 02:59 17°C / 85.5%
h4-hermonville 20-08-2026 - 02:58 19.2°C / 75.5%
h2-hermonville 20-08-2026 - 02:53 16.9°C / 87.5%
h1-hermonville 20-08-2026 - 02:53 18°C / 83.5%
h3-hermonville 20-08-2026 - 02:49 17.5°C / 84.5%
h4-hermonville 20-08-2026 - 02:48 19.2°C / 75.5%
h2-hermonville 20-08-2026 - 02:43 16.9°C / 87.5%
h1-hermonville 20-08-2026 - 02:43 18.1°C / 83.5%
h3-hermonville 20-08-2026 - 02:39 17.4°C / 85%
h4-hermonville 20-08-2026 - 02:38 19.3°C / 75.5%
h2-hermonville 20-08-2026 - 02:33 17°C / 87%
h1-hermonville 20-08-2026 - 02:33 18.1°C / 83.5%
h3-hermonville 20-08-2026 - 02:29 17.3°C / 85.5%
h4-hermonville 20-08-2026 - 02:28 19.2°C / 75.5%
h2-hermonville 20-08-2026 - 02:24 17.2°C / 87.5%
h1-hermonville 20-08-2026 - 02:23 18.1°C / 84%
h3-hermonville 20-08-2026 - 02:19 17.3°C / 86.5%
h4-hermonville 20-08-2026 - 02:18 19.4°C / 76%
h2-hermonville 20-08-2026 - 02:13 17.2°C / 87.5%
h1-hermonville 20-08-2026 - 02:13 18.2°C / 84.5%
h3-hermonville 20-08-2026 - 02:09 17.7°C / 84.5%
h4-hermonville 20-08-2026 - 02:08 19.6°C / 76%
h2-hermonville 20-08-2026 - 02:03 17.2°C / 87.5%
h1-hermonville 20-08-2026 - 02:03 18.3°C / 84.5%
h3-hermonville 20-08-2026 - 01:59 17.8°C / 84.5%
h4-hermonville 20-08-2026 - 01:58 19.6°C / 76%
h2-hermonville 20-08-2026 - 01:53 17.4°C / 88%
h1-hermonville 20-08-2026 - 01:53 18.6°C / 84.5%
h3-hermonville 20-08-2026 - 01:49 18.2°C / 83%
h1-hermonville 20-08-2026 - 01:43 18.7°C / 84%
h3-hermonville 20-08-2026 - 01:39 18.8°C / 80.5%
h4-hermonville 20-08-2026 - 01:38 19.8°C / 76.5%
h2-hermonville 20-08-2026 - 01:33 17.9°C / 87%
h1-hermonville 20-08-2026 - 01:33 18.9°C / 84%
h3-hermonville 20-08-2026 - 01:29 19.1°C / 81%
h4-hermonville 20-08-2026 - 01:28 20°C / 75.5%
h1-hermonville 20-08-2026 - 01:23 18.8°C / 85%
h3-hermonville 20-08-2026 - 01:19 18.5°C / 84%
h4-hermonville 20-08-2026 - 01:18 20.1°C / 76%
h2-hermonville 20-08-2026 - 01:13 17.8°C / 87%
h1-hermonville 20-08-2026 - 01:13 18.7°C / 85%
h3-hermonville 20-08-2026 - 01:09 19.3°C / 80.5%
h4-hermonville 20-08-2026 - 01:08 20.2°C / 75.5%
h2-hermonville 20-08-2026 - 01:03 18.1°C / 86%
h1-hermonville 20-08-2026 - 01:03 18.7°C / 85.5%
h3-hermonville 20-08-2026 - 00:59 19.4°C / 81.5%
h4-hermonville 20-08-2026 - 00:58 20.4°C / 75.5%
h2-hermonville 20-08-2026 - 00:53 18.3°C / 86%
h1-hermonville 20-08-2026 - 00:53 18.7°C / 86.5%
h3-hermonville 20-08-2026 - 00:49 19.3°C / 81.5%
h4-hermonville 20-08-2026 - 00:48 20.4°C / 75.5%
h2-hermonville 20-08-2026 - 00:43 18.7°C / 83.5%
h1-hermonville 20-08-2026 - 00:43 18.2°C / 89%
h3-hermonville 20-08-2026 - 00:39 20°C / 78.5%
h4-hermonville 20-08-2026 - 00:38 20.5°C / 75%
h2-hermonville 20-08-2026 - 00:33 18.8°C / 84%
h1-hermonville 20-08-2026 - 00:33 18.3°C / 88%
h3-hermonville 20-08-2026 - 00:29 19.9°C / 79%
h4-hermonville 20-08-2026 - 00:28 20.6°C / 74.5%
h1-hermonville 20-08-2026 - 00:23 18.3°C / 88.5%
h3-hermonville 20-08-2026 - 00:19 19.8°C / 80.5%
h4-hermonville 20-08-2026 - 00:18 20.8°C / 74%
h2-hermonville 20-08-2026 - 00:13 19.2°C / 81.5%
h1-hermonville 20-08-2026 - 00:13 18.4°C / 88.5%
h3-hermonville 20-08-2026 - 00:09 19.7°C / 80%
h4-hermonville 20-08-2026 - 00:08 20.8°C / 74%
h2-hermonville 20-08-2026 - 00:03 19.9°C / 79.5%
h1-hermonville 20-08-2026 - 00:03 17.9°C / 90.5%